< Typhoon 199104 1991 Season Typhoon 199106 >
Typhoon 199105 (YUNYA)
General InformationTrack Information on Google MapsDetailed Wind InformationList of All Images || Disaster Info.ResourceGoogle EarthGE AnimationAtom FeedGeoJSON
Detalied Best Track (Time Zone = UTC)
Year Month Day Hour Lat. Long. Pressure (hPa) Wind (kt) Class Image Chart
1991 6 12 00 12.0 127.5 1008 0 2 Image Chart
1991 6 12 06 12.3 127.0 1006 0 2 Image Chart
1991 6 12 12 12.6 126.4 1002 0 2 Image Chart
1991 6 12 18 13.1 125.9 998 35 3 Image Chart
1991 6 13 00 13.5 125.6 990 45 3 Image Chart
1991 6 13 06 13.7 125.0 975 60 4 Image Chart
1991 6 13 12 13.7 124.8 965 70 5 Image Chart
1991 6 13 18 13.9 124.6 960 75 5 Image Chart
1991 6 14 00 14.1 124.2 950 80 5 Image Chart
1991 6 14 06 14.4 123.5 950 80 5 Image Chart
1991 6 14 12 14.7 122.7 955 75 5 Image Chart
1991 6 14 18 15.0 122.0 965 70 5 Image Chart
1991 6 15 00 15.2 121.6 980 55 4 Image Chart
1991 6 15 06 15.4 121.3 990 45 3 Image Chart
1991 6 15 12 16.2 120.6 996 35 3 Image Chart
1991 6 15 18 17.0 120.0 1000 0 2 Image Chart
1991 6 16 00 18.5 119.5 1000 0 2 Image Chart
1991 6 16 06 20.0 120.0 1000 0 2 Image Chart
1991 6 16 12 20.7 120.7 1002 0 2 Image Chart
1991 6 16 18 21.3 121.0 1002 0 2 Image Chart
1991 6 17 00 21.8 121.2 1002 0 2 Image Chart
1991 6 17 06 22.3 121.3 1002 0 2 Image Chart
Japan Meteorological Agency Best Track Data | Correction Date : 1992-01-04
< Typhoon 199104 1991 Season Typhoon 199106 >

Help